Share

Board Camp, AR

12:26 AM CDT en Abril 25, 2014 (GMT -0500)
Mena (KMEZ) Alt 1079 ft | 34.55 °N, 94.20 °W | Change Station

Current weather conditions updated 11 minutes ago

Clear
Despejado
61 ° F
Sensación térmica 61 ° F
N
8
Viento Variable Viento desde ONO
Amanecer 6:33 AM
Atardecer 7:56 PM
Luna Creciente menguante

Hoy se prevé un día Más cálido que ayer.

Presión 29.92 pul
Visibilidad 10.0 Millas
Nubes Despejado
Punto de rocío 43 ° F
Humedad 52%
Precipitaciones 0.00 pul
Espesor de la nieve No disponible.
UV 0 de una escala de 16
Polen 7.70 de una escala de 12
Calidad del aire No disponible.
Flu Activity Sporadic
METAR KMEZ 250515Z AUTO 30007KT 10SM CLR 16/06 A2992 RMK AO2 PWINO

More Conditions Fewer Conditions

Presión 29.92 pul
Visibilidad 10.0 Millas
Nubes Despejado
Punto de rocío 43 ° F
Humedad 52%
Precipitaciones 0.00 pul
Espesor de la nieve No disponible.
UV 0 de una escala de 16
Polen 7.70 de una escala de 12
Calidad del aire No disponible.
Flu Activity Sporadic
METAR KMEZ 250515Z AUTO 30007KT 10SM CLR 16/06 A2992 RMK AO2 PWINO

More Conditions Fewer Conditions

10-Day Weather Forecast

Almanac

Astronomía

Apr. 25, 2014 Salida Puesta
Hora real 6:33 AM CDT 7:56 PM CDT
Crepúsculo civil 6:06 AM CDT 8:23 PM CDT
Crepúsculo náutico 5:35 AM CDT 8:55 PM CDT
Crepúsculo astronómico 5:02 AM CDT 9:28 PM CDT
Luna 4:11 AM CDT 4:28 PM CDT
Horas de luz 14h 16m
Horas de luz
13h 23m
Tomorrow will be 1m 55s longer.
Creciente menguante, 19% of the Moon is Illuminated
Hoy
Creciente menguante
Abr 29
Nueva
May 6
Cuarto creciente
May 14
Luna llena
May 21
Cuarto menguante

Extremos de hoy

Máximos del estado Bajos del estado

Community

  • Deer in evening light
    Deer in evening light
  • Critter
    Critter
  • Jone Runs Falls
    Jone Runs Falls
  • Easter in Shenandoah National Park
    Easter in Shenandoah National Park
  • Sunset at Apalachicola Bay, Florida
    Sunset at Apalachicola Bay, Florida

WunderPhotos

Upload Photos

1,704,861 ¡fotos cargadas!

WunderBlogs® & News

Nearby

Grosos de nieve

Estación Profundido Altura
No tenemos constancia de nieve nueva.

Temperaturas de aguas costeras

Lugar Temperatura
Sin partes meteorológicos de las estaciones

Actividad de terremotos

Ciudad Distance Mag. Tiempo y dato
No hay informes recientes de la actividad sísmica.
Magnitud mínima muestra es 2,5.

Estaciones meteorológicas cercanas

Ubicación de la estación Temp. Punto de rocío Humedad Viento Precip. Alt Actualizado Tipo
RAWS ODEN AR, Oden, AR 60 ° F 47 ° F 62% NO  a  4 mph 0.00 pul / hr 896 ft 11:27 PM CDT MADIS

Show More Stations Show Fewer Stations

What do you think?

We're not finished. Please let us know what you like, what you don't like, and what you are still missing.